sensor_id;sensor_type;location;lat;lon;timestamp;temperature;humidity
21722;DHT22;11023;48.274;7.794;2022-12-24T00:01:34;12.00;99.90
21722;DHT22;11023;48.274;7.794;2022-12-24T00:04:00;12.00;99.90
21722;DHT22;11023;48.274;7.794;2022-12-24T00:06:26;12.00;99.90
21722;DHT22;11023;48.274;7.794;2022-12-24T00:08:52;12.00;99.90
21722;DHT22;11023;48.274;7.794;2022-12-24T00:11:18;12.00;99.90
21722;DHT22;11023;48.274;7.794;2022-12-24T00:13:44;11.90;99.90
21722;DHT22;11023;48.274;7.794;2022-12-24T00:16:11;11.90;99.90
21722;DHT22;11023;48.274;7.794;2022-12-24T00:18:36;11.90;99.90
21722;DHT22;11023;48.274;7.794;2022-12-24T00:21:02;12.00;99.90
21722;DHT22;11023;48.274;7.794;2022-12-24T00:23:29;12.00;99.90
21722;DHT22;11023;48.274;7.794;2022-12-24T00:25:55;12.00;99.90
21722;DHT22;11023;48.274;7.794;2022-12-24T00:28:21;12.00;99.90
21722;DHT22;11023;48.274;7.794;2022-12-24T00:30:47;12.00;99.90
21722;DHT22;11023;48.274;7.794;2022-12-24T00:33:13;12.00;99.90
21722;DHT22;11023;48.274;7.794;2022-12-24T00:35:39;12.00;99.90
21722;DHT22;11023;48.274;7.794;2022-12-24T00:38:06;12.10;99.90
21722;DHT22;11023;48.274;7.794;2022-12-24T00:40:32;12.10;99.90
21722;DHT22;11023;48.274;7.794;2022-12-24T00:42:58;12.20;99.90
21722;DHT22;11023;48.274;7.794;2022-12-24T00:45:24;12.30;99.90
21722;DHT22;11023;48.274;7.794;2022-12-24T00:47:52;12.30;99.90
21722;DHT22;11023;48.274;7.794;2022-12-24T00:50:19;12.30;99.90
21722;DHT22;11023;48.274;7.794;2022-12-24T00:52:44;12.30;99.90
21722;DHT22;11023;48.274;7.794;2022-12-24T00:55:10;12.30;99.90
21722;DHT22;11023;48.274;7.794;2022-12-24T00:57:36;12.20;99.90
21722;DHT22;11023;48.274;7.794;2022-12-24T01:00:03;12.20;99.90
21722;DHT22;11023;48.274;7.794;2022-12-24T01:02:29;12.20;99.90
21722;DHT22;11023;48.274;7.794;2022-12-24T01:04:54;12.20;99.90
21722;DHT22;11023;48.274;7.794;2022-12-24T01:07:37;12.10;99.90
21722;DHT22;11023;48.274;7.794;2022-12-24T01:10:04;12.10;99.90
21722;DHT22;11023;48.274;7.794;2022-12-24T01:12:30;12.10;99.90
21722;DHT22;11023;48.274;7.794;2022-12-24T01:14:56;12.10;99.90
21722;DHT22;11023;48.274;7.794;2022-12-24T01:17:22;12.10;99.90
21722;DHT22;11023;48.274;7.794;2022-12-24T01:19:48;12.00;99.90
21722;DHT22;11023;48.274;7.794;2022-12-24T01:22:14;12.00;99.90
21722;DHT22;11023;48.274;7.794;2022-12-24T01:24:40;12.00;99.90
21722;DHT22;11023;48.274;7.794;2022-12-24T01:27:06;12.00;99.90
21722;DHT22;11023;48.274;7.794;2022-12-24T01:29:31;12.10;99.90
21722;DHT22;11023;48.274;7.794;2022-12-24T01:31:57;12.10;99.90
21722;DHT22;11023;48.274;7.794;2022-12-24T01:34:24;12.20;99.90
21722;DHT22;11023;48.274;7.794;2022-12-24T01:36:51;12.20;99.90
21722;DHT22;11023;48.274;7.794;2022-12-24T01:39:16;12.20;99.90
21722;DHT22;11023;48.274;7.794;2022-12-24T01:41:43;12.30;99.90
21722;DHT22;11023;48.274;7.794;2022-12-24T01:44:30;12.30;99.90
21722;DHT22;11023;48.274;7.794;2022-12-24T01:47:16;12.30;99.90
21722;DHT22;11023;48.274;7.794;2022-12-24T01:49:50;12.40;99.90
21722;DHT22;11023;48.274;7.794;2022-12-24T01:52:25;12.50;99.90
21722;DHT22;11023;48.274;7.794;2022-12-24T01:55:05;12.50;99.90
21722;DHT22;11023;48.274;7.794;2022-12-24T01:57:53;12.50;99.90
21722;DHT22;11023;48.274;7.794;2022-12-24T02:00:20;12.50;99.90
21722;DHT22;11023;48.274;7.794;2022-12-24T02:02:50;12.60;99.90
21722;DHT22;11023;48.274;7.794;2022-12-24T02:05:31;12.60;99.90
21722;DHT22;11023;48.274;7.794;2022-12-24T02:07:59;12.60;99.90
21722;DHT22;11023;48.274;7.794;2022-12-24T02:10:27;12.70;99.90
21722;DHT22;11023;48.274;7.794;2022-12-24T02:12:53;12.60;99.90
21722;DHT22;11023;48.274;7.794;2022-12-24T02:15:19;12.60;99.90
21722;DHT22;11023;48.274;7.794;2022-12-24T02:18:15;12.70;99.90
21722;DHT22;11023;48.274;7.794;2022-12-24T02:21:08;12.70;99.90
21722;DHT22;11023;48.274;7.794;2022-12-24T02:29:06;12.60;99.90
21722;DHT22;11023;48.274;7.794;2022-12-24T02:31:40;12.60;99.90
21722;DHT22;11023;48.274;7.794;2022-12-24T02:34:24;12.60;99.90
21722;DHT22;11023;48.274;7.794;2022-12-24T02:37:01;12.50;99.90
21722;DHT22;11023;48.274;7.794;2022-12-24T02:39:41;12.50;99.90
21722;DHT22;11023;48.274;7.794;2022-12-24T02:42:11;12.50;99.90
21722;DHT22;11023;48.274;7.794;2022-12-24T02:44:49;12.50;99.90
21722;DHT22;11023;48.274;7.794;2022-12-24T02:47:19;12.40;99.90
21722;DHT22;11023;48.274;7.794;2022-12-24T02:49:47;12.40;99.90
21722;DHT22;11023;48.274;7.794;2022-12-24T02:52:37;12.40;99.90
21722;DHT22;11023;48.274;7.794;2022-12-24T02:55:08;12.40;99.90
21722;DHT22;11023;48.274;7.794;2022-12-24T02:58:09;12.40;99.90
21722;DHT22;11023;48.274;7.794;2022-12-24T03:01:09;12.40;99.90
21722;DHT22;11023;48.274;7.794;2022-12-24T03:03:57;12.40;99.90
21722;DHT22;11023;48.274;7.794;2022-12-24T03:12:09;12.30;99.90
21722;DHT22;11023;48.274;7.794;2022-12-24T03:14:38;12.20;99.90
21722;DHT22;11023;48.274;7.794;2022-12-24T03:17:05;12.20;99.90
21722;DHT22;11023;48.274;7.794;2022-12-24T03:19:32;12.20;99.90
21722;DHT22;11023;48.274;7.794;2022-12-24T03:22:01;12.10;99.90
21722;DHT22;11023;48.274;7.794;2022-12-24T03:24:28;12.20;99.90
21722;DHT22;11023;48.274;7.794;2022-12-24T03:26:55;12.20;99.90
21722;DHT22;11023;48.274;7.794;2022-12-24T03:29:22;12.20;99.90
21722;DHT22;11023;48.274;7.794;2022-12-24T03:31:50;12.30;99.90
21722;DHT22;11023;48.274;7.794;2022-12-24T03:34:17;12.30;99.90
21722;DHT22;11023;48.274;7.794;2022-12-24T03:36:44;12.20;99.90
21722;DHT22;11023;48.274;7.794;2022-12-24T03:39:10;12.20;99.90
21722;DHT22;11023;48.274;7.794;2022-12-24T03:41:36;12.20;99.90
21722;DHT22;11023;48.274;7.794;2022-12-24T03:44:03;12.20;99.90
21722;DHT22;11023;48.274;7.794;2022-12-24T03:46:29;12.10;99.90
21722;DHT22;11023;48.274;7.794;2022-12-24T03:48:55;12.10;99.90
21722;DHT22;11023;48.274;7.794;2022-12-24T03:51:23;12.00;99.90
21722;DHT22;11023;48.274;7.794;2022-12-24T03:53:54;12.00;99.90
21722;DHT22;11023;48.274;7.794;2022-12-24T03:56:19;11.90;99.90
21722;DHT22;11023;48.274;7.794;2022-12-24T03:58:46;11.90;99.90
21722;DHT22;11023;48.274;7.794;2022-12-24T04:01:12;11.90;99.90
21722;DHT22;11023;48.274;7.794;2022-12-24T04:03:37;11.80;99.90
21722;DHT22;11023;48.274;7.794;2022-12-24T04:06:10;11.80;99.90
21722;DHT22;11023;48.274;7.794;2022-12-24T04:08:37;11.90;99.90
21722;DHT22;11023;48.274;7.794;2022-12-24T04:11:04;11.90;99.90
21722;DHT22;11023;48.274;7.794;2022-12-24T04:13:30;11.80;99.90
21722;DHT22;11023;48.274;7.794;2022-12-24T04:18:23;11.80;99.90
21722;DHT22;11023;48.274;7.794;2022-12-24T04:20:48;11.80;99.90
21722;DHT22;11023;48.274;7.794;2022-12-24T04:23:14;11.80;99.90
21722;DHT22;11023;48.274;7.794;2022-12-24T04:25:40;11.80;99.90
21722;DHT22;11023;48.274;7.794;2022-12-24T04:28:06;11.80;99.90
21722;DHT22;11023;48.274;7.794;2022-12-24T04:30:32;11.80;99.90
21722;DHT22;11023;48.274;7.794;2022-12-24T04:32:58;11.80;99.90
21722;DHT22;11023;48.274;7.794;2022-12-24T04:35:23;11.80;99.90
21722;DHT22;11023;48.274;7.794;2022-12-24T04:37:49;11.90;99.90
21722;DHT22;11023;48.274;7.794;2022-12-24T04:40:14;12.00;99.90
21722;DHT22;11023;48.274;7.794;2022-12-24T04:42:40;12.00;99.90
21722;DHT22;11023;48.274;7.794;2022-12-24T04:45:06;12.10;99.90
21722;DHT22;11023;48.274;7.794;2022-12-24T04:47:32;12.10;99.90
21722;DHT22;11023;48.274;7.794;2022-12-24T04:49:58;12.10;99.90
21722;DHT22;11023;48.274;7.794;2022-12-24T04:52:26;12.00;99.90
21722;DHT22;11023;48.274;7.794;2022-12-24T04:54:51;12.00;99.90
21722;DHT22;11023;48.274;7.794;2022-12-24T04:57:17;12.00;99.90
21722;DHT22;11023;48.274;7.794;2022-12-24T04:59:42;12.00;99.90
21722;DHT22;11023;48.274;7.794;2022-12-24T05:02:09;12.00;99.90
21722;DHT22;11023;48.274;7.794;2022-12-24T05:04:34;11.90;99.90
21722;DHT22;11023;48.274;7.794;2022-12-24T05:07:00;11.90;99.90
21722;DHT22;11023;48.274;7.794;2022-12-24T05:09:26;11.90;99.90
21722;DHT22;11023;48.274;7.794;2022-12-24T05:11:51;11.80;99.90
21722;DHT22;11023;48.274;7.794;2022-12-24T05:14:17;11.80;99.90
21722;DHT22;11023;48.274;7.794;2022-12-24T05:16:43;11.80;99.90
21722;DHT22;11023;48.274;7.794;2022-12-24T05:19:08;11.80;99.90
21722;DHT22;11023;48.274;7.794;2022-12-24T05:21:34;11.80;99.90
21722;DHT22;11023;48.274;7.794;2022-12-24T05:24:00;11.80;99.90
21722;DHT22;11023;48.274;7.794;2022-12-24T05:26:45;11.80;99.90
21722;DHT22;11023;48.274;7.794;2022-12-24T05:29:12;11.80;99.90
21722;DHT22;11023;48.274;7.794;2022-12-24T05:31:39;11.90;99.90
21722;DHT22;11023;48.274;7.794;2022-12-24T05:34:05;11.90;99.90
21722;DHT22;11023;48.274;7.794;2022-12-24T05:36:31;11.90;99.90
21722;DHT22;11023;48.274;7.794;2022-12-24T05:38:57;11.90;99.90
21722;DHT22;11023;48.274;7.794;2022-12-24T05:41:23;12.00;99.90
21722;DHT22;11023;48.274;7.794;2022-12-24T05:43:50;12.00;99.90
21722;DHT22;11023;48.274;7.794;2022-12-24T05:46:18;12.10;99.90
21722;DHT22;11023;48.274;7.794;2022-12-24T05:48:45;12.00;99.90
21722;DHT22;11023;48.274;7.794;2022-12-24T05:51:12;12.00;99.90
21722;DHT22;11023;48.274;7.794;2022-12-24T05:53:39;12.00;99.90
21722;DHT22;11023;48.274;7.794;2022-12-24T05:56:13;12.10;99.90
21722;DHT22;11023;48.274;7.794;2022-12-24T05:58:40;12.00;99.90
21722;DHT22;11023;48.274;7.794;2022-12-24T06:01:06;12.00;99.90
21722;DHT22;11023;48.274;7.794;2022-12-24T06:03:33;12.00;99.90
21722;DHT22;11023;48.274;7.794;2022-12-24T06:06:11;12.00;99.90
21722;DHT22;11023;48.274;7.794;2022-12-24T06:08:38;11.90;99.90
21722;DHT22;11023;48.274;7.794;2022-12-24T06:11:07;11.90;99.90
21722;DHT22;11023;48.274;7.794;2022-12-24T06:13:34;11.90;99.90
21722;DHT22;11023;48.274;7.794;2022-12-24T06:16:01;11.80;99.90
21722;DHT22;11023;48.274;7.794;2022-12-24T06:18:31;11.70;99.90
21722;DHT22;11023;48.274;7.794;2022-12-24T06:20:57;11.70;99.90
21722;DHT22;11023;48.274;7.794;2022-12-24T06:23:24;11.60;99.90
21722;DHT22;11023;48.274;7.794;2022-12-24T06:25:51;11.50;99.90
21722;DHT22;11023;48.274;7.794;2022-12-24T06:28:17;11.50;99.90
21722;DHT22;11023;48.274;7.794;2022-12-24T06:30:47;11.40;99.90
21722;DHT22;11023;48.274;7.794;2022-12-24T06:33:13;11.40;99.90
21722;DHT22;11023;48.274;7.794;2022-12-24T06:35:39;11.40;99.90
21722;DHT22;11023;48.274;7.794;2022-12-24T06:38:04;11.40;99.90
21722;DHT22;11023;48.274;7.794;2022-12-24T06:40:30;11.40;99.90
21722;DHT22;11023;48.274;7.794;2022-12-24T06:42:56;11.30;99.90
21722;DHT22;11023;48.274;7.794;2022-12-24T06:45:22;11.30;99.90
21722;DHT22;11023;48.274;7.794;2022-12-24T06:47:47;11.30;99.90
21722;DHT22;11023;48.274;7.794;2022-12-24T06:50:13;11.30;99.90
21722;DHT22;11023;48.274;7.794;2022-12-24T06:52:38;11.20;99.90
21722;DHT22;11023;48.274;7.794;2022-12-24T06:55:04;11.30;99.90
21722;DHT22;11023;48.274;7.794;2022-12-24T06:57:30;11.20;99.90
21722;DHT22;11023;48.274;7.794;2022-12-24T06:59:57;11.20;99.90
21722;DHT22;11023;48.274;7.794;2022-12-24T07:02:23;11.20;99.90
21722;DHT22;11023;48.274;7.794;2022-12-24T07:04:49;11.20;99.90
21722;DHT22;11023;48.274;7.794;2022-12-24T07:07:15;11.20;99.90
21722;DHT22;11023;48.274;7.794;2022-12-24T07:09:40;11.10;99.90
21722;DHT22;11023;48.274;7.794;2022-12-24T07:12:06;11.10;99.90
21722;DHT22;11023;48.274;7.794;2022-12-24T07:14:32;11.10;99.90
21722;DHT22;11023;48.274;7.794;2022-12-24T07:16:57;11.10;99.90
21722;DHT22;11023;48.274;7.794;2022-12-24T07:19:23;11.10;99.90
21722;DHT22;11023;48.274;7.794;2022-12-24T07:21:49;11.10;99.90
21722;DHT22;11023;48.274;7.794;2022-12-24T07:24:15;11.10;99.90
21722;DHT22;11023;48.274;7.794;2022-12-24T07:26:40;11.10;99.90
21722;DHT22;11023;48.274;7.794;2022-12-24T07:29:06;11.20;99.90
21722;DHT22;11023;48.274;7.794;2022-12-24T07:31:32;11.10;99.90
21722;DHT22;11023;48.274;7.794;2022-12-24T07:33:58;11.20;99.90
21722;DHT22;11023;48.274;7.794;2022-12-24T07:36:23;11.20;99.90
21722;DHT22;11023;48.274;7.794;2022-12-24T07:38:49;11.20;99.90
21722;DHT22;11023;48.274;7.794;2022-12-24T07:41:15;11.30;99.90
21722;DHT22;11023;48.274;7.794;2022-12-24T07:43:41;11.20;99.90
21722;DHT22;11023;48.274;7.794;2022-12-24T07:46:07;11.20;99.90
21722;DHT22;11023;48.274;7.794;2022-12-24T07:48:33;11.30;99.90
21722;DHT22;11023;48.274;7.794;2022-12-24T07:50:59;11.30;99.90
21722;DHT22;11023;48.274;7.794;2022-12-24T07:53:27;11.30;99.90
21722;DHT22;11023;48.274;7.794;2022-12-24T07:55:53;11.30;99.90
21722;DHT22;11023;48.274;7.794;2022-12-24T07:58:19;11.30;99.90
21722;DHT22;11023;48.274;7.794;2022-12-24T08:00:45;11.30;99.90
21722;DHT22;11023;48.274;7.794;2022-12-24T08:03:18;11.30;99.90
21722;DHT22;11023;48.274;7.794;2022-12-24T08:05:45;11.30;99.90
21722;DHT22;11023;48.274;7.794;2022-12-24T08:08:11;11.30;99.90
21722;DHT22;11023;48.274;7.794;2022-12-24T08:10:41;11.40;99.90
21722;DHT22;11023;48.274;7.794;2022-12-24T08:13:07;11.40;99.90
21722;DHT22;11023;48.274;7.794;2022-12-24T08:15:33;11.40;99.90
21722;DHT22;11023;48.274;7.794;2022-12-24T08:17:59;11.50;99.90
21722;DHT22;11023;48.274;7.794;2022-12-24T08:20:24;11.40;99.90
21722;DHT22;11023;48.274;7.794;2022-12-24T08:22:51;11.40;99.90
21722;DHT22;11023;48.274;7.794;2022-12-24T08:25:17;11.40;99.90
21722;DHT22;11023;48.274;7.794;2022-12-24T08:27:42;11.40;99.90
21722;DHT22;11023;48.274;7.794;2022-12-24T08:30:08;11.30;99.90
21722;DHT22;11023;48.274;7.794;2022-12-24T08:32:34;11.30;99.90
21722;DHT22;11023;48.274;7.794;2022-12-24T08:35:00;11.30;99.90
21722;DHT22;11023;48.274;7.794;2022-12-24T08:37:25;11.40;99.90
21722;DHT22;11023;48.274;7.794;2022-12-24T08:39:51;11.40;99.90
21722;DHT22;11023;48.274;7.794;2022-12-24T08:42:17;11.40;99.90
21722;DHT22;11023;48.274;7.794;2022-12-24T08:44:42;11.50;99.90
21722;DHT22;11023;48.274;7.794;2022-12-24T08:47:08;11.50;99.90
21722;DHT22;11023;48.274;7.794;2022-12-24T08:49:34;11.60;99.90
21722;DHT22;11023;48.274;7.794;2022-12-24T08:51:59;11.60;99.90
21722;DHT22;11023;48.274;7.794;2022-12-24T08:54:25;11.60;99.90
21722;DHT22;11023;48.274;7.794;2022-12-24T08:56:51;11.70;99.90
21722;DHT22;11023;48.274;7.794;2022-12-24T08:59:16;11.80;99.90
21722;DHT22;11023;48.274;7.794;2022-12-24T09:01:42;11.90;99.90
21722;DHT22;11023;48.274;7.794;2022-12-24T09:04:08;12.00;99.90
21722;DHT22;11023;48.274;7.794;2022-12-24T09:06:34;12.10;99.90
21722;DHT22;11023;48.274;7.794;2022-12-24T09:09:00;12.20;99.90
21722;DHT22;11023;48.274;7.794;2022-12-24T09:11:26;12.20;99.90
21722;DHT22;11023;48.274;7.794;2022-12-24T09:13:53;12.30;99.90
21722;DHT22;11023;48.274;7.794;2022-12-24T09:16:18;12.40;99.90
21722;DHT22;11023;48.274;7.794;2022-12-24T09:18:44;12.40;99.90
21722;DHT22;11023;48.274;7.794;2022-12-24T09:21:13;12.40;99.90
21722;DHT22;11023;48.274;7.794;2022-12-24T09:23:40;12.50;99.90
21722;DHT22;11023;48.274;7.794;2022-12-24T09:26:17;12.50;99.90
21722;DHT22;11023;48.274;7.794;2022-12-24T09:28:46;12.50;99.90
21722;DHT22;11023;48.274;7.794;2022-12-24T09:31:12;12.50;99.90
21722;DHT22;11023;48.274;7.794;2022-12-24T09:33:39;12.50;99.90
21722;DHT22;11023;48.274;7.794;2022-12-24T09:36:05;12.50;99.90
21722;DHT22;11023;48.274;7.794;2022-12-24T09:38:31;12.50;99.90
21722;DHT22;11023;48.274;7.794;2022-12-24T09:40:58;12.50;99.90
21722;DHT22;11023;48.274;7.794;2022-12-24T09:43:25;12.50;99.90
21722;DHT22;11023;48.274;7.794;2022-12-24T09:48:31;12.60;99.90
21722;DHT22;11023;48.274;7.794;2022-12-24T09:53:51;12.60;99.90
21722;DHT22;11023;48.274;7.794;2022-12-24T09:56:21;12.70;99.90
21722;DHT22;11023;48.274;7.794;2022-12-24T09:59:19;12.80;99.90
21722;DHT22;11023;48.274;7.794;2022-12-24T10:01:51;12.80;99.90
21722;DHT22;11023;48.274;7.794;2022-12-24T10:04:19;12.90;99.90
21722;DHT22;11023;48.274;7.794;2022-12-24T10:07:01;13.00;99.90
21722;DHT22;11023;48.274;7.794;2022-12-24T10:09:45;13.00;99.90
21722;DHT22;11023;48.274;7.794;2022-12-24T10:17:45;13.10;99.90
21722;DHT22;11023;48.274;7.794;2022-12-24T10:23:50;13.10;99.90
21722;DHT22;11023;48.274;7.794;2022-12-24T10:26:43;13.20;99.90
21722;DHT22;11023;48.274;7.794;2022-12-24T10:29:30;13.20;99.90
21722;DHT22;11023;48.274;7.794;2022-12-24T10:34:39;13.20;99.90
21722;DHT22;11023;48.274;7.794;2022-12-24T10:37:06;13.30;99.90
21722;DHT22;11023;48.274;7.794;2022-12-24T10:39:34;13.30;99.90
21722;DHT22;11023;48.274;7.794;2022-12-24T10:42:01;13.30;99.90
21722;DHT22;11023;48.274;7.794;2022-12-24T10:44:30;13.40;99.90
21722;DHT22;11023;48.274;7.794;2022-12-24T10:46:56;13.50;99.90
21722;DHT22;11023;48.274;7.794;2022-12-24T10:49:35;13.50;99.90
21722;DHT22;11023;48.274;7.794;2022-12-24T10:52:38;13.60;99.90
21722;DHT22;11023;48.274;7.794;2022-12-24T10:55:21;13.60;99.90
21722;DHT22;11023;48.274;7.794;2022-12-24T10:58:03;13.60;99.90
21722;DHT22;11023;48.274;7.794;2022-12-24T11:00:30;13.70;99.90
21722;DHT22;11023;48.274;7.794;2022-12-24T11:03:29;13.70;99.90
21722;DHT22;11023;48.274;7.794;2022-12-24T11:08:25;13.70;99.90
21722;DHT22;11023;48.274;7.794;2022-12-24T11:10:59;13.70;99.90
21722;DHT22;11023;48.274;7.794;2022-12-24T11:13:31;13.70;99.90
21722;DHT22;11023;48.274;7.794;2022-12-24T11:16:02;13.70;99.90
21722;DHT22;11023;48.274;7.794;2022-12-24T11:18:30;13.80;99.90
21722;DHT22;11023;48.274;7.794;2022-12-24T11:20:56;13.80;99.90
21722;DHT22;11023;48.274;7.794;2022-12-24T11:23:26;13.90;99.90
21722;DHT22;11023;48.274;7.794;2022-12-24T11:25:53;13.90;99.90
21722;DHT22;11023;48.274;7.794;2022-12-24T11:28:24;13.90;99.90
21722;DHT22;11023;48.274;7.794;2022-12-24T11:33:30;14.00;99.90
21722;DHT22;11023;48.274;7.794;2022-12-24T11:36:09;14.00;99.90
21722;DHT22;11023;48.274;7.794;2022-12-24T11:38:36;14.00;99.90
21722;DHT22;11023;48.274;7.794;2022-12-24T11:41:09;14.10;99.90
21722;DHT22;11023;48.274;7.794;2022-12-24T11:43:44;14.10;99.90
21722;DHT22;11023;48.274;7.794;2022-12-24T11:46:33;14.10;99.90
21722;DHT22;11023;48.274;7.794;2022-12-24T11:54:33;14.10;99.90
21722;DHT22;11023;48.274;7.794;2022-12-24T11:57:00;14.10;99.90
21722;DHT22;11023;48.274;7.794;2022-12-24T11:59:36;14.10;99.90
21722;DHT22;11023;48.274;7.794;2022-12-24T12:02:28;14.20;99.90
21722;DHT22;11023;48.274;7.794;2022-12-24T12:05:40;14.10;99.90
21722;DHT22;11023;48.274;7.794;2022-12-24T12:08:16;14.20;99.90
21722;DHT22;11023;48.274;7.794;2022-12-24T12:10:43;14.30;99.90
21722;DHT22;11023;48.274;7.794;2022-12-24T12:13:18;14.30;99.90
21722;DHT22;11023;48.274;7.794;2022-12-24T12:18:33;14.30;99.90
21722;DHT22;11023;48.274;7.794;2022-12-24T12:21:07;14.40;99.90
21722;DHT22;11023;48.274;7.794;2022-12-24T12:23:41;14.40;99.90
21722;DHT22;11023;48.274;7.794;2022-12-24T12:28:45;14.50;99.90
21722;DHT22;11023;48.274;7.794;2022-12-24T12:31:29;14.50;99.90
21722;DHT22;11023;48.274;7.794;2022-12-24T12:36:33;14.50;99.90
21722;DHT22;11023;48.274;7.794;2022-12-24T12:39:00;14.60;99.90
21722;DHT22;11023;48.274;7.794;2022-12-24T12:44:47;14.70;99.90
21722;DHT22;11023;48.274;7.794;2022-12-24T12:50:09;14.80;99.90
21722;DHT22;11023;48.274;7.794;2022-12-24T12:58:26;14.70;99.90
21722;DHT22;11023;48.274;7.794;2022-12-24T13:01:00;14.70;99.90
21722;DHT22;11023;48.274;7.794;2022-12-24T13:12:02;14.50;99.90
21722;DHT22;11023;48.274;7.794;2022-12-24T13:14:34;14.40;99.90
21722;DHT22;11023;48.274;7.794;2022-12-24T13:20:20;14.30;99.90
21722;DHT22;11023;48.274;7.794;2022-12-24T13:22:59;14.30;99.90
21722;DHT22;11023;48.274;7.794;2022-12-24T13:25:37;14.20;99.90
21722;DHT22;11023;48.274;7.794;2022-12-24T13:28:35;14.20;99.90
21722;DHT22;11023;48.274;7.794;2022-12-24T13:33:57;14.10;99.90
21722;DHT22;11023;48.274;7.794;2022-12-24T13:36:23;14.10;99.90
21722;DHT22;11023;48.274;7.794;2022-12-24T13:46:46;14.00;99.90
21722;DHT22;11023;48.274;7.794;2022-12-24T13:49:26;14.00;99.90
21722;DHT22;11023;48.274;7.794;2022-12-24T14:10:42;13.70;99.90
21722;DHT22;11023;48.274;7.794;2022-12-24T14:16:07;13.60;99.90
21722;DHT22;11023;48.274;7.794;2022-12-24T14:18:40;13.50;99.90
21722;DHT22;11023;48.274;7.794;2022-12-24T14:21:13;13.50;99.90
21722;DHT22;11023;48.274;7.794;2022-12-24T14:23:54;13.50;99.90
21722;DHT22;11023;48.274;7.794;2022-12-24T14:26:24;13.50;99.90
21722;DHT22;11023;48.274;7.794;2022-12-24T14:29:07;13.40;99.90
21722;DHT22;11023;48.274;7.794;2022-12-24T14:31:52;13.40;99.90
21722;DHT22;11023;48.274;7.794;2022-12-24T14:34:18;13.40;99.90
21722;DHT22;11023;48.274;7.794;2022-12-24T14:36:45;13.40;99.90
21722;DHT22;11023;48.274;7.794;2022-12-24T14:48:10;13.30;99.90
21722;DHT22;11023;48.274;7.794;2022-12-24T14:56:14;13.10;99.90
21722;DHT22;11023;48.274;7.794;2022-12-24T14:58:40;13.00;99.90
21722;DHT22;11023;48.274;7.794;2022-12-24T15:01:30;13.00;99.90
21722;DHT22;11023;48.274;7.794;2022-12-24T15:06:40;13.00;99.90
21722;DHT22;11023;48.274;7.794;2022-12-24T15:09:13;13.00;99.90
21722;DHT22;11023;48.274;7.794;2022-12-24T15:11:43;12.90;99.90
21722;DHT22;11023;48.274;7.794;2022-12-24T15:14:10;12.90;99.90
21722;DHT22;11023;48.274;7.794;2022-12-24T15:16:37;12.90;99.90
21722;DHT22;11023;48.274;7.794;2022-12-24T15:19:41;12.90;99.90
21722;DHT22;11023;48.274;7.794;2022-12-24T15:22:00;12.80;99.90
21722;DHT22;11023;48.274;7.794;2022-12-24T15:24:30;12.80;99.90
21722;DHT22;11023;48.274;7.794;2022-12-24T15:27:00;12.80;99.90
21722;DHT22;11023;48.274;7.794;2022-12-24T15:29:32;12.80;99.90
21722;DHT22;11023;48.274;7.794;2022-12-24T15:32:03;12.80;99.90
21722;DHT22;11023;48.274;7.794;2022-12-24T15:34:43;12.80;99.90
21722;DHT22;11023;48.274;7.794;2022-12-24T15:37:13;12.70;99.90
21722;DHT22;11023;48.274;7.794;2022-12-24T15:39:41;12.70;99.90
21722;DHT22;11023;48.274;7.794;2022-12-24T15:42:09;12.70;99.90
21722;DHT22;11023;48.274;7.794;2022-12-24T15:44:41;12.60;99.90
21722;DHT22;11023;48.274;7.794;2022-12-24T15:47:15;12.60;99.90
21722;DHT22;11023;48.274;7.794;2022-12-24T15:49:45;12.70;99.90
21722;DHT22;11023;48.274;7.794;2022-12-24T15:52:14;12.60;99.90
21722;DHT22;11023;48.274;7.794;2022-12-24T15:54:47;12.60;99.90
21722;DHT22;11023;48.274;7.794;2022-12-24T15:59:55;12.60;99.90
21722;DHT22;11023;48.274;7.794;2022-12-24T16:02:30;12.50;99.90
21722;DHT22;11023;48.274;7.794;2022-12-24T16:05:18;12.50;99.90
21722;DHT22;11023;48.274;7.794;2022-12-24T16:08:02;12.50;99.90
21722;DHT22;11023;48.274;7.794;2022-12-24T16:10:32;12.40;99.90
21722;DHT22;11023;48.274;7.794;2022-12-24T16:12:59;12.40;99.90
21722;DHT22;11023;48.274;7.794;2022-12-24T16:15:25;12.40;99.90
21722;DHT22;11023;48.274;7.794;2022-12-24T16:17:51;12.30;99.90
21722;DHT22;11023;48.274;7.794;2022-12-24T16:20:20;12.30;99.90
21722;DHT22;11023;48.274;7.794;2022-12-24T16:22:48;12.30;99.90
21722;DHT22;11023;48.274;7.794;2022-12-24T16:25:25;12.20;99.90
21722;DHT22;11023;48.274;7.794;2022-12-24T16:27:51;12.20;99.90
21722;DHT22;11023;48.274;7.794;2022-12-24T16:30:19;12.20;99.90
21722;DHT22;11023;48.274;7.794;2022-12-24T16:32:46;12.10;99.90
21722;DHT22;11023;48.274;7.794;2022-12-24T16:35:25;12.10;99.90
21722;DHT22;11023;48.274;7.794;2022-12-24T16:37:52;12.10;99.90
21722;DHT22;11023;48.274;7.794;2022-12-24T16:40:18;12.00;99.90
21722;DHT22;11023;48.274;7.794;2022-12-24T16:42:44;12.00;99.90
21722;DHT22;11023;48.274;7.794;2022-12-24T16:45:29;12.00;99.90
21722;DHT22;11023;48.274;7.794;2022-12-24T16:47:59;12.10;99.90
21722;DHT22;11023;48.274;7.794;2022-12-24T16:50:25;12.10;99.90
21722;DHT22;11023;48.274;7.794;2022-12-24T16:52:51;12.10;99.90
21722;DHT22;11023;48.274;7.794;2022-12-24T16:55:17;12.10;99.90
21722;DHT22;11023;48.274;7.794;2022-12-24T16:57:43;12.10;99.90
21722;DHT22;11023;48.274;7.794;2022-12-24T17:00:35;12.10;99.90
21722;DHT22;11023;48.274;7.794;2022-12-24T17:03:01;12.20;99.90
21722;DHT22;11023;48.274;7.794;2022-12-24T17:05:27;12.20;99.90
21722;DHT22;11023;48.274;7.794;2022-12-24T17:07:53;12.30;99.90
21722;DHT22;11023;48.274;7.794;2022-12-24T17:10:18;12.30;99.90
21722;DHT22;11023;48.274;7.794;2022-12-24T17:12:45;12.30;99.90
21722;DHT22;11023;48.274;7.794;2022-12-24T17:15:11;12.30;99.90
21722;DHT22;11023;48.274;7.794;2022-12-24T17:17:36;12.30;99.90
21722;DHT22;11023;48.274;7.794;2022-12-24T17:20:03;12.20;99.90
21722;DHT22;11023;48.274;7.794;2022-12-24T17:22:29;12.20;99.90
21722;DHT22;11023;48.274;7.794;2022-12-24T17:24:55;12.20;99.90
21722;DHT22;11023;48.274;7.794;2022-12-24T17:27:22;12.20;99.90
21722;DHT22;11023;48.274;7.794;2022-12-24T17:29:49;12.10;99.90
21722;DHT22;11023;48.274;7.794;2022-12-24T17:32:14;12.10;99.90
21722;DHT22;11023;48.274;7.794;2022-12-24T17:34:40;12.20;99.90
21722;DHT22;11023;48.274;7.794;2022-12-24T17:37:06;12.10;99.90
21722;DHT22;11023;48.274;7.794;2022-12-24T17:39:32;12.10;99.90
21722;DHT22;11023;48.274;7.794;2022-12-24T17:41:58;12.00;99.90
21722;DHT22;11023;48.274;7.794;2022-12-24T17:44:24;12.00;99.90
21722;DHT22;11023;48.274;7.794;2022-12-24T17:46:50;12.00;99.90
21722;DHT22;11023;48.274;7.794;2022-12-24T17:49:16;12.00;99.90
21722;DHT22;11023;48.274;7.794;2022-12-24T17:51:42;12.00;99.90